ソチ の空港の天気 - METARとTAF

ソチ空港 ( URSS / AER ) - ロシア ソチ
飛行場実況気象(Metar)
観測時間11/30 21:00 MSK (11/30 18:00 UTC)
風向・風速北西 1m/s
視程10km以上
天気現象
なし
気温10℃
湿度71%
気圧1019hPa
METARURSS 301800Z 31001MPS 9999 NSC 10/05 Q1019 R06/010070 R02/////// NOSIG RMK R02/04004MPS QFE763
過去の天気等 Google飛行場航空写真 Wunderground天気予報

過去48時間のMETAR

飛行場予報(TAF)
発表時間: 11/30 19:57 MSK (11/30 16:57 UTC)
予報対象時間: 30日21時 MSK ~ 1日21時 MSK
風向・風速北東 7m/s
視程10km以上
なし
1日12時 MSK ~ 1日13時 MSK に徐々に
風向・風速西 3m/s 瞬間風速 8m/s
全天の4割程度の雲 雲底高度 3050m
1日16時 MSK ~ 1日17時 MSK に徐々に
風向・風速北東 3m/s 瞬間風速 8m/s
1日20時 MSK ~ 1日21時 MSK に徐々に
風向・風速北東 7m/s
TAF URSS 301657Z 3018/0118 04007MPS 9999 NSC
BECMG 0109/0110 28003G08MPS SCT100
BECMG 0113/0114 05003G08MPS
BECMG 0117/0118 04007MPS